LQSALDSP

Guest
Details From LQSA - Sarajevo
To LDSP - SPLIT
Flight Number -
Tags decoded
Created
Modified
Stats Distance 90 nm / 167 km
Max Altitude 0 ft / 0 m
Waypoints 4
Social Downloads 1
Likes 0
Share VATSIM

Download

Looking for another format? Having issues loading an existing format? Contact us
Advertisement - Login to hide

Notes

Requested: LQSA VRANA Y88 KENEM LDSP

Route

LQSA VRANA KENEM LDSP

ID Type Via Altitude Latitude Longitude Leg Dist Tot Dist Heading (true) Name
O LQSA APT - 0 ft / 0 m 43.82460˚ 18.33150˚ - 0 nm - Sarajevo
VRANA FIX - 0 ft / 0 m 43.75361˚ 17.53778˚ 34 nm 34 nm 263° / 263° -
KENEM FIX - 0 ft / 0 m 43.63333˚ 16.94667˚ 26 nm 61 nm 254° / 254° -
O LDSP APT - 0 ft / 0 m 43.53903˚ 16.29811˚ 28 nm 90 nm 259° / 258° SPLIT

Altitude Profile

Advertisement - Login to hide

LQSA

Details ICAO LQSA (SJJ)
Name Sarajevo
Region Bosnia and Herzegovinia
Timezone Europe/Sarajevo (UTC+1.0)
Stats Elevation 1,708 ft / 521 m (AMSL)
Location 43.824597° 18.331500°
Runways 1
Magnetic Variation 4.223° E

METAR

LQSA 181830Z 31005KT 6000 -SN FEW015 SCT025 BKN035 M01/M02 Q1022 NOSIG

Decode

TAF

Not found

Departure Runways

ID Width Length Bearing (true) Bearing (mag) Surface Threshold Offset Overrun Length
12 150 ft / 46 m 8,519 ft / 2,597 m 117.41° 113.19° Asphalt 333 ft / 102 m 0 ft / 0 m
30 150 ft / 46 m 8,519 ft / 2,597 m 297.43° 293.21° Asphalt 666 ft / 203 m 0 ft / 0 m

LDSP

Details ICAO LDSP (SPU)
Name SPLIT
Region Croatia
Timezone Europe/Zagreb (UTC+1.0)
Stats Elevation 79 ft / 24 m (AMSL)
Location 43.539026° 16.298112°
Runways 1
Magnetic Variation 3.838° E

METAR

LDSP 181830Z 29005KT 250V330 CAVOK 03/M09 Q1023 NOSIG

Decode

TAF

TAF LDSP 181725Z 1818/1918 31008KT 9999 FEW070 TX07/1913Z TN00/1906Z TEMPO 1818/1908 01008KT

Decode

Destination Runways

ID Width Length Bearing (true) Bearing (mag) Surface Threshold Offset Overrun Length
05 148 ft / 45 m 8,357 ft / 2,547 m 52.48° 48.64° Asphalt 0 ft / 0 m 76 ft / 23 m
23 148 ft / 45 m 8,357 ft / 2,547 m 232.50° 228.66° Asphalt 525 ft / 160 m 820 ft / 250 m

Approach Navaids

Runway Type Ident Frequency Range Bearing (true) Bearing (mag) Slope Elevation
05 Localiser IST 110.50 MHz 25 nm / 46 km 52.57° 48.73° - 69 ft / 21 m (AMSL)
05 Glidescope IST 110.50 MHz 25 nm / 46 km 52.57° 48.73° 3.00° 52 ft / 16 m (AMSL)

Popular Alternatives